sensor_id;sensor_type;location;lat;lon;timestamp;temperature;humidity
3275;DHT22;1649;53.672;10.064;2023-08-21T00:01:56;17.70;99.90
3275;DHT22;1649;53.672;10.064;2023-08-21T00:04:22;17.60;99.90
3275;DHT22;1649;53.672;10.064;2023-08-21T00:06:47;17.60;99.90
3275;DHT22;1649;53.672;10.064;2023-08-21T00:09:13;17.60;99.90
3275;DHT22;1649;53.672;10.064;2023-08-21T00:11:38;17.60;99.90
3275;DHT22;1649;53.672;10.064;2023-08-21T00:14:04;17.60;99.90
3275;DHT22;1649;53.672;10.064;2023-08-21T00:16:29;17.50;99.90
3275;DHT22;1649;53.672;10.064;2023-08-21T00:18:55;17.50;99.90
3275;DHT22;1649;53.672;10.064;2023-08-21T00:21:21;17.50;99.90
3275;DHT22;1649;53.672;10.064;2023-08-21T00:23:46;17.50;99.90
3275;DHT22;1649;53.672;10.064;2023-08-21T00:26:12;17.50;99.90
3275;DHT22;1649;53.672;10.064;2023-08-21T00:28:38;17.50;99.90
3275;DHT22;1649;53.672;10.064;2023-08-21T00:31:04;17.40;99.90
3275;DHT22;1649;53.672;10.064;2023-08-21T00:33:31;17.40;99.90
3275;DHT22;1649;53.672;10.064;2023-08-21T00:35:57;17.40;99.90
3275;DHT22;1649;53.672;10.064;2023-08-21T00:38:22;17.40;99.90
3275;DHT22;1649;53.672;10.064;2023-08-21T00:40:49;17.30;99.90
3275;DHT22;1649;53.672;10.064;2023-08-21T00:43:14;17.30;99.90
3275;DHT22;1649;53.672;10.064;2023-08-21T00:45:41;17.30;99.90
3275;DHT22;1649;53.672;10.064;2023-08-21T00:48:08;17.30;99.90
3275;DHT22;1649;53.672;10.064;2023-08-21T00:50:34;17.30;99.90
3275;DHT22;1649;53.672;10.064;2023-08-21T00:52:59;17.20;99.90
3275;DHT22;1649;53.672;10.064;2023-08-21T00:55:25;17.20;99.90
3275;DHT22;1649;53.672;10.064;2023-08-21T00:57:51;17.20;99.90
3275;DHT22;1649;53.672;10.064;2023-08-21T01:00:17;17.20;99.90
3275;DHT22;1649;53.672;10.064;2023-08-21T01:02:43;17.20;99.90
3275;DHT22;1649;53.672;10.064;2023-08-21T01:05:08;17.10;99.90
3275;DHT22;1649;53.672;10.064;2023-08-21T01:07:41;17.10;99.90
3275;DHT22;1649;53.672;10.064;2023-08-21T01:10:17;17.10;99.90
3275;DHT22;1649;53.672;10.064;2023-08-21T01:12:59;17.00;99.90
3275;DHT22;1649;53.672;10.064;2023-08-21T01:15:25;17.00;99.90
3275;DHT22;1649;53.672;10.064;2023-08-21T01:17:51;17.00;99.90
3275;DHT22;1649;53.672;10.064;2023-08-21T01:20:18;17.00;99.90
3275;DHT22;1649;53.672;10.064;2023-08-21T01:22:44;17.00;99.90
3275;DHT22;1649;53.672;10.064;2023-08-21T01:25:13;16.90;99.90
3275;DHT22;1649;53.672;10.064;2023-08-21T01:27:43;16.90;99.90
3275;DHT22;1649;53.672;10.064;2023-08-21T01:30:10;16.90;99.90
3275;DHT22;1649;53.672;10.064;2023-08-21T01:33:01;16.90;99.90
3275;DHT22;1649;53.672;10.064;2023-08-21T01:35:31;16.80;99.90
3275;DHT22;1649;53.672;10.064;2023-08-21T01:37:58;16.90;99.90
3275;DHT22;1649;53.672;10.064;2023-08-21T01:40:24;16.80;99.90
3275;DHT22;1649;53.672;10.064;2023-08-21T01:42:52;16.80;99.90
3275;DHT22;1649;53.672;10.064;2023-08-21T01:45:17;16.80;99.90
3275;DHT22;1649;53.672;10.064;2023-08-21T01:47:43;16.80;99.90
3275;DHT22;1649;53.672;10.064;2023-08-21T01:50:09;16.80;99.90
3275;DHT22;1649;53.672;10.064;2023-08-21T01:52:34;16.80;99.90
3275;DHT22;1649;53.672;10.064;2023-08-21T01:55:00;16.80;99.90
3275;DHT22;1649;53.672;10.064;2023-08-21T01:57:25;16.80;99.90
3275;DHT22;1649;53.672;10.064;2023-08-21T01:59:51;16.80;99.90
3275;DHT22;1649;53.672;10.064;2023-08-21T02:02:16;16.80;99.90
3275;DHT22;1649;53.672;10.064;2023-08-21T02:04:42;16.80;99.90
3275;DHT22;1649;53.672;10.064;2023-08-21T02:07:07;16.80;99.90
3275;DHT22;1649;53.672;10.064;2023-08-21T02:09:33;16.80;99.90
3275;DHT22;1649;53.672;10.064;2023-08-21T02:11:58;16.80;99.90
3275;DHT22;1649;53.672;10.064;2023-08-21T02:14:24;16.70;99.90
3275;DHT22;1649;53.672;10.064;2023-08-21T02:16:49;16.70;99.90
3275;DHT22;1649;53.672;10.064;2023-08-21T02:19:15;16.70;99.90
3275;DHT22;1649;53.672;10.064;2023-08-21T02:21:40;16.70;99.90
3275;DHT22;1649;53.672;10.064;2023-08-21T02:24:06;16.60;99.90
3275;DHT22;1649;53.672;10.064;2023-08-21T02:26:31;16.60;99.90
3275;DHT22;1649;53.672;10.064;2023-08-21T02:28:57;16.60;99.90
3275;DHT22;1649;53.672;10.064;2023-08-21T02:31:23;16.60;99.90
3275;DHT22;1649;53.672;10.064;2023-08-21T02:33:48;16.60;99.90
3275;DHT22;1649;53.672;10.064;2023-08-21T02:36:15;16.60;99.90
3275;DHT22;1649;53.672;10.064;2023-08-21T02:38:41;16.50;99.90
3275;DHT22;1649;53.672;10.064;2023-08-21T02:41:06;16.50;99.90
3275;DHT22;1649;53.672;10.064;2023-08-21T02:43:33;16.50;99.90
3275;DHT22;1649;53.672;10.064;2023-08-21T02:45:58;16.40;99.90
3275;DHT22;1649;53.672;10.064;2023-08-21T02:48:24;16.40;99.90
3275;DHT22;1649;53.672;10.064;2023-08-21T02:50:49;16.40;99.90
3275;DHT22;1649;53.672;10.064;2023-08-21T02:53:15;16.30;99.90
3275;DHT22;1649;53.672;10.064;2023-08-21T02:55:40;16.40;99.90
3275;DHT22;1649;53.672;10.064;2023-08-21T02:58:06;16.40;99.90
3275;DHT22;1649;53.672;10.064;2023-08-21T03:00:31;16.40;99.90
3275;DHT22;1649;53.672;10.064;2023-08-21T03:02:57;16.40;99.90
3275;DHT22;1649;53.672;10.064;2023-08-21T03:05:22;16.30;99.90
3275;DHT22;1649;53.672;10.064;2023-08-21T03:07:48;16.30;99.90
3275;DHT22;1649;53.672;10.064;2023-08-21T03:10:13;16.30;99.90
3275;DHT22;1649;53.672;10.064;2023-08-21T03:12:39;16.30;99.90
3275;DHT22;1649;53.672;10.064;2023-08-21T03:15:05;16.40;99.90
3275;DHT22;1649;53.672;10.064;2023-08-21T03:17:31;16.40;99.90
3275;DHT22;1649;53.672;10.064;2023-08-21T03:19:56;16.40;99.90
3275;DHT22;1649;53.672;10.064;2023-08-21T03:22:22;16.50;99.90
3275;DHT22;1649;53.672;10.064;2023-08-21T03:24:47;16.50;99.90
3275;DHT22;1649;53.672;10.064;2023-08-21T03:27:15;16.50;99.90
3275;DHT22;1649;53.672;10.064;2023-08-21T03:29:42;16.40;99.90
3275;DHT22;1649;53.672;10.064;2023-08-21T03:32:14;16.40;99.90
3275;DHT22;1649;53.672;10.064;2023-08-21T03:34:39;16.50;99.90
3275;DHT22;1649;53.672;10.064;2023-08-21T03:37:05;16.50;99.90
3275;DHT22;1649;53.672;10.064;2023-08-21T03:39:31;16.50;99.90
3275;DHT22;1649;53.672;10.064;2023-08-21T03:41:56;16.50;99.90
3275;DHT22;1649;53.672;10.064;2023-08-21T03:44:22;16.60;99.90
3275;DHT22;1649;53.672;10.064;2023-08-21T03:46:47;16.50;99.90
3275;DHT22;1649;53.672;10.064;2023-08-21T03:49:12;16.50;99.90
3275;DHT22;1649;53.672;10.064;2023-08-21T03:51:38;16.40;99.90
3275;DHT22;1649;53.672;10.064;2023-08-21T03:54:03;16.30;99.90
3275;DHT22;1649;53.672;10.064;2023-08-21T03:56:29;16.40;99.90
3275;DHT22;1649;53.672;10.064;2023-08-21T03:58:54;16.30;99.90
3275;DHT22;1649;53.672;10.064;2023-08-21T04:01:20;16.30;99.90
3275;DHT22;1649;53.672;10.064;2023-08-21T04:03:45;16.20;99.90
3275;DHT22;1649;53.672;10.064;2023-08-21T04:06:11;16.30;99.90
3275;DHT22;1649;53.672;10.064;2023-08-21T04:08:36;16.30;99.90
3275;DHT22;1649;53.672;10.064;2023-08-21T04:11:02;16.30;99.90
3275;DHT22;1649;53.672;10.064;2023-08-21T04:13:27;16.30;99.90
3275;DHT22;1649;53.672;10.064;2023-08-21T04:15:54;16.30;99.90
3275;DHT22;1649;53.672;10.064;2023-08-21T04:18:19;16.30;99.90
3275;DHT22;1649;53.672;10.064;2023-08-21T04:20:47;16.30;99.90
3275;DHT22;1649;53.672;10.064;2023-08-21T04:23:13;16.40;99.90
3275;DHT22;1649;53.672;10.064;2023-08-21T04:25:38;16.40;99.90
3275;DHT22;1649;53.672;10.064;2023-08-21T04:28:04;16.40;99.90
3275;DHT22;1649;53.672;10.064;2023-08-21T04:30:29;16.40;99.90
3275;DHT22;1649;53.672;10.064;2023-08-21T04:32:55;16.50;99.90
3275;DHT22;1649;53.672;10.064;2023-08-21T04:35:20;16.50;99.90
3275;DHT22;1649;53.672;10.064;2023-08-21T04:37:47;16.50;99.90
3275;DHT22;1649;53.672;10.064;2023-08-21T04:40:13;16.50;99.90
3275;DHT22;1649;53.672;10.064;2023-08-21T04:42:39;16.50;99.90
3275;DHT22;1649;53.672;10.064;2023-08-21T04:45:05;16.40;99.90
3275;DHT22;1649;53.672;10.064;2023-08-21T04:47:31;16.50;99.90
3275;DHT22;1649;53.672;10.064;2023-08-21T04:49:57;16.50;99.90
3275;DHT22;1649;53.672;10.064;2023-08-21T04:52:23;16.50;99.90
3275;DHT22;1649;53.672;10.064;2023-08-21T04:54:49;16.50;99.90
3275;DHT22;1649;53.672;10.064;2023-08-21T04:57:16;16.50;99.90
3275;DHT22;1649;53.672;10.064;2023-08-21T04:59:41;16.60;99.90
3275;DHT22;1649;53.672;10.064;2023-08-21T05:02:07;16.60;99.90
3275;DHT22;1649;53.672;10.064;2023-08-21T05:04:35;16.60;99.90
3275;DHT22;1649;53.672;10.064;2023-08-21T05:07:01;16.60;99.90
3275;DHT22;1649;53.672;10.064;2023-08-21T05:09:26;16.60;99.90
3275;DHT22;1649;53.672;10.064;2023-08-21T05:11:52;16.70;99.90
3275;DHT22;1649;53.672;10.064;2023-08-21T05:14:17;16.70;99.90
3275;DHT22;1649;53.672;10.064;2023-08-21T05:16:45;16.70;99.90
3275;DHT22;1649;53.672;10.064;2023-08-21T05:19:10;16.70;99.90
3275;DHT22;1649;53.672;10.064;2023-08-21T05:21:36;16.80;99.90
3275;DHT22;1649;53.672;10.064;2023-08-21T05:24:01;16.80;99.90
3275;DHT22;1649;53.672;10.064;2023-08-21T05:26:27;16.80;99.90
3275;DHT22;1649;53.672;10.064;2023-08-21T05:28:52;16.80;99.90
3275;DHT22;1649;53.672;10.064;2023-08-21T05:31:18;16.90;99.90
3275;DHT22;1649;53.672;10.064;2023-08-21T05:33:43;16.90;99.90
3275;DHT22;1649;53.672;10.064;2023-08-21T05:36:09;16.90;99.90
3275;DHT22;1649;53.672;10.064;2023-08-21T05:38:34;16.90;99.90
3275;DHT22;1649;53.672;10.064;2023-08-21T05:41:00;17.00;99.90
3275;DHT22;1649;53.672;10.064;2023-08-21T05:43:26;17.00;99.90
3275;DHT22;1649;53.672;10.064;2023-08-21T05:45:51;17.00;99.90
3275;DHT22;1649;53.672;10.064;2023-08-21T05:48:17;17.10;99.90
3275;DHT22;1649;53.672;10.064;2023-08-21T05:50:43;17.10;99.90
3275;DHT22;1649;53.672;10.064;2023-08-21T05:53:08;17.20;99.90
3275;DHT22;1649;53.672;10.064;2023-08-21T05:55:36;17.20;99.90
3275;DHT22;1649;53.672;10.064;2023-08-21T05:58:02;17.30;99.90
3275;DHT22;1649;53.672;10.064;2023-08-21T06:00:28;17.30;99.90
3275;DHT22;1649;53.672;10.064;2023-08-21T06:02:53;17.40;99.90
3275;DHT22;1649;53.672;10.064;2023-08-21T06:05:19;17.50;99.90
3275;DHT22;1649;53.672;10.064;2023-08-21T06:07:44;17.50;99.90
3275;DHT22;1649;53.672;10.064;2023-08-21T06:10:10;17.50;99.90
3275;DHT22;1649;53.672;10.064;2023-08-21T06:12:41;17.60;99.90
3275;DHT22;1649;53.672;10.064;2023-08-21T06:15:07;17.70;99.90
3275;DHT22;1649;53.672;10.064;2023-08-21T06:17:34;17.70;99.90
3275;DHT22;1649;53.672;10.064;2023-08-21T06:19:59;17.80;99.90
3275;DHT22;1649;53.672;10.064;2023-08-21T06:22:25;17.90;99.90
3275;DHT22;1649;53.672;10.064;2023-08-21T06:24:51;18.10;99.90
3275;DHT22;1649;53.672;10.064;2023-08-21T06:27:16;18.40;99.90
3275;DHT22;1649;53.672;10.064;2023-08-21T06:29:42;18.70;99.90
3275;DHT22;1649;53.672;10.064;2023-08-21T06:32:07;19.00;99.90
3275;DHT22;1649;53.672;10.064;2023-08-21T06:34:33;19.00;99.90
3275;DHT22;1649;53.672;10.064;2023-08-21T06:36:58;19.40;99.90
3275;DHT22;1649;53.672;10.064;2023-08-21T06:39:25;20.50;99.90
3275;DHT22;1649;53.672;10.064;2023-08-21T06:41:50;21.40;99.90
3275;DHT22;1649;53.672;10.064;2023-08-21T06:44:16;21.90;99.90
3275;DHT22;1649;53.672;10.064;2023-08-21T06:46:42;22.30;99.90
3275;DHT22;1649;53.672;10.064;2023-08-21T06:49:07;22.90;99.90
3275;DHT22;1649;53.672;10.064;2023-08-21T06:51:33;24.00;99.90
3275;DHT22;1649;53.672;10.064;2023-08-21T06:53:59;24.60;99.90
3275;DHT22;1649;53.672;10.064;2023-08-21T06:56:24;25.10;99.90
3275;DHT22;1649;53.672;10.064;2023-08-21T06:58:50;25.60;99.90
3275;DHT22;1649;53.672;10.064;2023-08-21T07:01:16;25.90;99.90
3275;DHT22;1649;53.672;10.064;2023-08-21T07:03:42;26.30;99.90
3275;DHT22;1649;53.672;10.064;2023-08-21T07:06:08;26.30;99.90
3275;DHT22;1649;53.672;10.064;2023-08-21T07:08:34;26.10;99.90
3275;DHT22;1649;53.672;10.064;2023-08-21T07:11:02;26.40;99.90
3275;DHT22;1649;53.672;10.064;2023-08-21T07:13:29;26.70;99.90
3275;DHT22;1649;53.672;10.064;2023-08-21T07:15:54;27.20;99.90
3275;DHT22;1649;53.672;10.064;2023-08-21T07:18:20;27.30;99.90
3275;DHT22;1649;53.672;10.064;2023-08-21T07:20:45;27.50;99.90
3275;DHT22;1649;53.672;10.064;2023-08-21T07:23:11;27.70;99.90
3275;DHT22;1649;53.672;10.064;2023-08-21T07:25:37;27.80;99.90
3275;DHT22;1649;53.672;10.064;2023-08-21T07:28:02;28.10;98.90
3275;DHT22;1649;53.672;10.064;2023-08-21T07:30:28;28.10;97.90
3275;DHT22;1649;53.672;10.064;2023-08-21T07:32:53;28.30;98.00
3275;DHT22;1649;53.672;10.064;2023-08-21T07:35:19;28.60;97.00
3275;DHT22;1649;53.672;10.064;2023-08-21T07:37:46;28.90;97.20
3275;DHT22;1649;53.672;10.064;2023-08-21T07:40:11;28.90;96.90
3275;DHT22;1649;53.672;10.064;2023-08-21T07:42:37;28.90;96.40
3275;DHT22;1649;53.672;10.064;2023-08-21T07:45:03;28.70;96.20
3275;DHT22;1649;53.672;10.064;2023-08-21T07:47:29;28.20;96.30
3275;DHT22;1649;53.672;10.064;2023-08-21T07:49:56;28.40;96.60
3275;DHT22;1649;53.672;10.064;2023-08-21T07:52:22;28.50;95.40
3275;DHT22;1649;53.672;10.064;2023-08-21T07:54:54;28.20;95.90
3275;DHT22;1649;53.672;10.064;2023-08-21T07:57:20;28.10;96.10
3275;DHT22;1649;53.672;10.064;2023-08-21T07:59:45;28.00;96.00
3275;DHT22;1649;53.672;10.064;2023-08-21T08:02:11;28.30;97.20
3275;DHT22;1649;53.672;10.064;2023-08-21T08:04:40;28.50;95.90
3275;DHT22;1649;53.672;10.064;2023-08-21T08:07:05;28.80;96.10
3275;DHT22;1649;53.672;10.064;2023-08-21T08:09:31;29.10;95.90
3275;DHT22;1649;53.672;10.064;2023-08-21T08:11:56;29.40;94.50
3275;DHT22;1649;53.672;10.064;2023-08-21T08:14:22;29.80;94.40
3275;DHT22;1649;53.672;10.064;2023-08-21T08:16:47;29.70;94.40
3275;DHT22;1649;53.672;10.064;2023-08-21T08:19:13;30.10;92.80
3275;DHT22;1649;53.672;10.064;2023-08-21T08:21:38;30.30;92.50
3275;DHT22;1649;53.672;10.064;2023-08-21T08:24:04;30.30;91.60
3275;DHT22;1649;53.672;10.064;2023-08-21T08:26:29;30.00;92.60
3275;DHT22;1649;53.672;10.064;2023-08-21T08:28:55;29.90;94.10
3275;DHT22;1649;53.672;10.064;2023-08-21T08:31:20;29.90;94.00
3275;DHT22;1649;53.672;10.064;2023-08-21T08:33:46;30.40;92.80
3275;DHT22;1649;53.672;10.064;2023-08-21T08:36:13;30.40;91.70
3275;DHT22;1649;53.672;10.064;2023-08-21T08:38:38;30.30;90.10
3275;DHT22;1649;53.672;10.064;2023-08-21T08:41:12;30.20;91.30
3275;DHT22;1649;53.672;10.064;2023-08-21T08:43:40;30.50;91.20
3275;DHT22;1649;53.672;10.064;2023-08-21T08:46:07;30.60;92.40
3275;DHT22;1649;53.672;10.064;2023-08-21T08:48:35;30.90;90.70
3275;DHT22;1649;53.672;10.064;2023-08-21T08:51:02;31.00;90.60
3275;DHT22;1649;53.672;10.064;2023-08-21T08:53:29;30.60;91.30
3275;DHT22;1649;53.672;10.064;2023-08-21T08:55:57;30.70;90.60
3275;DHT22;1649;53.672;10.064;2023-08-21T08:58:22;30.90;90.00
3275;DHT22;1649;53.672;10.064;2023-08-21T09:00:48;30.60;91.00
3275;DHT22;1649;53.672;10.064;2023-08-21T09:03:13;30.10;92.50
3275;DHT22;1649;53.672;10.064;2023-08-21T09:05:40;30.20;93.20
3275;DHT22;1649;53.672;10.064;2023-08-21T09:10:32;31.00;92.80
3275;DHT22;1649;53.672;10.064;2023-08-21T09:12:57;31.20;90.40
3275;DHT22;1649;53.672;10.064;2023-08-21T09:15:29;30.30;89.90
3275;DHT22;1649;53.672;10.064;2023-08-21T09:17:55;29.40;91.90
3275;DHT22;1649;53.672;10.064;2023-08-21T09:20:21;29.70;93.80
3275;DHT22;1649;53.672;10.064;2023-08-21T09:22:53;29.60;92.60
3275;DHT22;1649;53.672;10.064;2023-08-21T09:25:20;29.20;91.60
3275;DHT22;1649;53.672;10.064;2023-08-21T09:27:45;29.40;92.80
3275;DHT22;1649;53.672;10.064;2023-08-21T09:30:12;29.50;92.40
3275;DHT22;1649;53.672;10.064;2023-08-21T09:32:59;29.60;93.10
3275;DHT22;1649;53.672;10.064;2023-08-21T09:35:32;30.10;92.70
3275;DHT22;1649;53.672;10.064;2023-08-21T09:37:59;30.40;92.50
3275;DHT22;1649;53.672;10.064;2023-08-21T09:40:24;30.50;90.60
3275;DHT22;1649;53.672;10.064;2023-08-21T09:42:53;30.60;90.90
3275;DHT22;1649;53.672;10.064;2023-08-21T09:45:23;30.90;91.20
3275;DHT22;1649;53.672;10.064;2023-08-21T09:47:50;31.20;89.10
3275;DHT22;1649;53.672;10.064;2023-08-21T09:50:17;31.00;90.90
3275;DHT22;1649;53.672;10.064;2023-08-21T09:52:44;31.00;90.90
3275;DHT22;1649;53.672;10.064;2023-08-21T09:55:10;30.40;88.70
3275;DHT22;1649;53.672;10.064;2023-08-21T09:57:36;30.50;91.10
3275;DHT22;1649;53.672;10.064;2023-08-21T10:00:03;29.80;91.60
3275;DHT22;1649;53.672;10.064;2023-08-21T10:02:42;29.50;92.90
3275;DHT22;1649;53.672;10.064;2023-08-21T10:05:11;29.40;91.70
3275;DHT22;1649;53.672;10.064;2023-08-21T10:07:38;29.60;92.70
3275;DHT22;1649;53.672;10.064;2023-08-21T10:10:04;29.50;92.20
3275;DHT22;1649;53.672;10.064;2023-08-21T10:12:30;29.40;89.70
3275;DHT22;1649;53.672;10.064;2023-08-21T10:14:56;29.20;92.70
3275;DHT22;1649;53.672;10.064;2023-08-21T10:17:21;29.40;92.60
3275;DHT22;1649;53.672;10.064;2023-08-21T10:19:53;29.70;92.10
3275;DHT22;1649;53.672;10.064;2023-08-21T10:22:45;29.70;91.60
3275;DHT22;1649;53.672;10.064;2023-08-21T10:25:19;29.40;91.30
3275;DHT22;1649;53.672;10.064;2023-08-21T10:27:55;29.40;91.60
3275;DHT22;1649;53.672;10.064;2023-08-21T10:30:23;29.50;91.00
3275;DHT22;1649;53.672;10.064;2023-08-21T10:32:50;29.60;91.80
3275;DHT22;1649;53.672;10.064;2023-08-21T10:35:21;29.50;90.90
3275;DHT22;1649;53.672;10.064;2023-08-21T10:38:10;29.60;90.40
3275;DHT22;1649;53.672;10.064;2023-08-21T10:40:37;29.40;92.40
3275;DHT22;1649;53.672;10.064;2023-08-21T10:43:03;30.00;91.50
3275;DHT22;1649;53.672;10.064;2023-08-21T10:45:29;30.20;87.40
3275;DHT22;1649;53.672;10.064;2023-08-21T10:47:59;30.10;90.80
3275;DHT22;1649;53.672;10.064;2023-08-21T10:50:25;29.80;88.70
3275;DHT22;1649;53.672;10.064;2023-08-21T10:52:52;29.80;91.80
3275;DHT22;1649;53.672;10.064;2023-08-21T10:55:18;29.90;89.70
3275;DHT22;1649;53.672;10.064;2023-08-21T10:57:47;29.60;89.50
3275;DHT22;1649;53.672;10.064;2023-08-21T11:00:15;28.90;87.30
3275;DHT22;1649;53.672;10.064;2023-08-21T11:02:43;28.70;90.40
3275;DHT22;1649;53.672;10.064;2023-08-21T11:05:10;28.40;90.50
3275;DHT22;1649;53.672;10.064;2023-08-21T11:07:38;28.60;90.60
3275;DHT22;1649;53.672;10.064;2023-08-21T11:10:08;28.60;91.60
3275;DHT22;1649;53.672;10.064;2023-08-21T11:12:35;28.20;90.60
3275;DHT22;1649;53.672;10.064;2023-08-21T11:15:01;28.40;91.90
3275;DHT22;1649;53.672;10.064;2023-08-21T11:17:26;28.80;90.60
3275;DHT22;1649;53.672;10.064;2023-08-21T11:19:52;28.90;90.70
3275;DHT22;1649;53.672;10.064;2023-08-21T11:22:17;29.10;90.60
3275;DHT22;1649;53.672;10.064;2023-08-21T11:24:46;29.00;90.80
3275;DHT22;1649;53.672;10.064;2023-08-21T11:27:14;29.00;90.40
3275;DHT22;1649;53.672;10.064;2023-08-21T11:29:47;28.90;90.50
3275;DHT22;1649;53.672;10.064;2023-08-21T11:32:15;28.40;88.30
3275;DHT22;1649;53.672;10.064;2023-08-21T11:34:42;28.30;90.60
3275;DHT22;1649;53.672;10.064;2023-08-21T11:37:09;27.60;88.80
3275;DHT22;1649;53.672;10.064;2023-08-21T11:39:42;27.30;91.20
3275;DHT22;1649;53.672;10.064;2023-08-21T11:42:12;27.50;92.20
3275;DHT22;1649;53.672;10.064;2023-08-21T11:44:50;27.70;90.20
3275;DHT22;1649;53.672;10.064;2023-08-21T11:47:17;28.00;90.10
3275;DHT22;1649;53.672;10.064;2023-08-21T11:49:44;27.80;90.00
3275;DHT22;1649;53.672;10.064;2023-08-21T11:52:10;27.80;91.80
3275;DHT22;1649;53.672;10.064;2023-08-21T11:54:38;27.50;90.60
3275;DHT22;1649;53.672;10.064;2023-08-21T11:57:05;27.70;90.90
3275;DHT22;1649;53.672;10.064;2023-08-21T11:59:31;27.80;90.30
3275;DHT22;1649;53.672;10.064;2023-08-21T12:01:56;28.20;87.30
3275;DHT22;1649;53.672;10.064;2023-08-21T12:04:22;28.30;89.40
3275;DHT22;1649;53.672;10.064;2023-08-21T12:06:47;28.00;90.30
3275;DHT22;1649;53.672;10.064;2023-08-21T12:09:13;27.80;88.90
3275;DHT22;1649;53.672;10.064;2023-08-21T12:11:38;27.40;87.20
3275;DHT22;1649;53.672;10.064;2023-08-21T12:14:05;27.40;89.90
3275;DHT22;1649;53.672;10.064;2023-08-21T12:16:30;27.40;90.40
3275;DHT22;1649;53.672;10.064;2023-08-21T12:18:56;27.50;90.20
3275;DHT22;1649;53.672;10.064;2023-08-21T12:21:25;27.60;89.80
3275;DHT22;1649;53.672;10.064;2023-08-21T12:23:50;27.50;90.20
3275;DHT22;1649;53.672;10.064;2023-08-21T12:26:16;27.60;91.00
3275;DHT22;1649;53.672;10.064;2023-08-21T12:28:49;27.70;89.40
3275;DHT22;1649;53.672;10.064;2023-08-21T12:31:15;28.00;89.10
3275;DHT22;1649;53.672;10.064;2023-08-21T12:33:41;28.00;88.00
3275;DHT22;1649;53.672;10.064;2023-08-21T12:36:06;28.10;90.60
3275;DHT22;1649;53.672;10.064;2023-08-21T12:38:34;28.30;91.20
3275;DHT22;1649;53.672;10.064;2023-08-21T12:41:01;28.50;89.70
3275;DHT22;1649;53.672;10.064;2023-08-21T12:43:26;28.30;85.70
3275;DHT22;1649;53.672;10.064;2023-08-21T12:45:52;28.30;88.50
3275;DHT22;1649;53.672;10.064;2023-08-21T12:48:17;28.20;89.50
3275;DHT22;1649;53.672;10.064;2023-08-21T12:50:42;28.20;88.20
3275;DHT22;1649;53.672;10.064;2023-08-21T12:53:08;28.00;84.90
3275;DHT22;1649;53.672;10.064;2023-08-21T12:55:33;27.80;87.40
3275;DHT22;1649;53.672;10.064;2023-08-21T12:57:59;27.50;86.90
3275;DHT22;1649;53.672;10.064;2023-08-21T13:00:24;27.10;89.00
3275;DHT22;1649;53.672;10.064;2023-08-21T13:02:50;27.30;91.00
3275;DHT22;1649;53.672;10.064;2023-08-21T13:05:16;27.60;88.70
3275;DHT22;1649;53.672;10.064;2023-08-21T13:07:41;27.70;86.80
3275;DHT22;1649;53.672;10.064;2023-08-21T13:10:07;27.60;87.80
3275;DHT22;1649;53.672;10.064;2023-08-21T13:12:33;28.00;90.10
3275;DHT22;1649;53.672;10.064;2023-08-21T13:14:59;28.10;87.80
3275;DHT22;1649;53.672;10.064;2023-08-21T13:17:24;28.30;86.80
3275;DHT22;1649;53.672;10.064;2023-08-21T13:19:50;28.30;85.80
3275;DHT22;1649;53.672;10.064;2023-08-21T13:22:16;28.20;86.40
3275;DHT22;1649;53.672;10.064;2023-08-21T13:24:42;28.10;85.00
3275;DHT22;1649;53.672;10.064;2023-08-21T13:27:08;27.70;83.70
3275;DHT22;1649;53.672;10.064;2023-08-21T13:29:33;27.70;84.70
3275;DHT22;1649;53.672;10.064;2023-08-21T13:31:59;27.80;85.20
3275;DHT22;1649;53.672;10.064;2023-08-21T13:34:24;27.80;86.20
3275;DHT22;1649;53.672;10.064;2023-08-21T13:36:50;27.70;86.00
3275;DHT22;1649;53.672;10.064;2023-08-21T13:39:16;27.50;84.40
3275;DHT22;1649;53.672;10.064;2023-08-21T13:41:42;27.50;86.40
3275;DHT22;1649;53.672;10.064;2023-08-21T13:44:07;27.60;87.10
3275;DHT22;1649;53.672;10.064;2023-08-21T13:46:34;27.60;86.10
3275;DHT22;1649;53.672;10.064;2023-08-21T13:48:59;27.60;85.90
3275;DHT22;1649;53.672;10.064;2023-08-21T13:51:25;27.60;86.50
3275;DHT22;1649;53.672;10.064;2023-08-21T13:53:51;27.80;85.90
3275;DHT22;1649;53.672;10.064;2023-08-21T13:56:16;28.00;86.60
3275;DHT22;1649;53.672;10.064;2023-08-21T13:58:42;28.00;84.90
3275;DHT22;1649;53.672;10.064;2023-08-21T14:01:07;28.00;81.40
3275;DHT22;1649;53.672;10.064;2023-08-21T14:03:33;27.90;83.90
3275;DHT22;1649;53.672;10.064;2023-08-21T14:05:59;27.80;86.30
3275;DHT22;1649;53.672;10.064;2023-08-21T14:08:25;27.70;88.60
3275;DHT22;1649;53.672;10.064;2023-08-21T14:10:50;27.60;87.20
3275;DHT22;1649;53.672;10.064;2023-08-21T14:13:16;27.70;84.80
3275;DHT22;1649;53.672;10.064;2023-08-21T14:15:42;27.60;82.30
3275;DHT22;1649;53.672;10.064;2023-08-21T14:18:07;27.60;83.30
3275;DHT22;1649;53.672;10.064;2023-08-21T14:20:32;27.60;83.40
3275;DHT22;1649;53.672;10.064;2023-08-21T14:22:58;27.60;84.70
3275;DHT22;1649;53.672;10.064;2023-08-21T14:25:23;27.70;86.00
3275;DHT22;1649;53.672;10.064;2023-08-21T14:27:49;27.60;83.90
3275;DHT22;1649;53.672;10.064;2023-08-21T14:30:15;27.70;84.20
3275;DHT22;1649;53.672;10.064;2023-08-21T14:32:40;27.60;83.90
3275;DHT22;1649;53.672;10.064;2023-08-21T14:35:08;27.40;84.10
3275;DHT22;1649;53.672;10.064;2023-08-21T14:37:34;27.30;85.30
3275;DHT22;1649;53.672;10.064;2023-08-21T14:40:00;27.20;86.00
3275;DHT22;1649;53.672;10.064;2023-08-21T14:42:25;27.40;87.00
3275;DHT22;1649;53.672;10.064;2023-08-21T14:44:51;27.40;83.00
3275;DHT22;1649;53.672;10.064;2023-08-21T14:47:16;27.50;84.90
3275;DHT22;1649;53.672;10.064;2023-08-21T14:49:42;27.20;82.40
3275;DHT22;1649;53.672;10.064;2023-08-21T14:52:07;27.30;84.70
3275;DHT22;1649;53.672;10.064;2023-08-21T14:54:33;27.30;84.40
3275;DHT22;1649;53.672;10.064;2023-08-21T14:57:00;27.40;84.30
3275;DHT22;1649;53.672;10.064;2023-08-21T14:59:26;27.20;82.90
3275;DHT22;1649;53.672;10.064;2023-08-21T15:01:51;26.90;82.30
3275;DHT22;1649;53.672;10.064;2023-08-21T15:04:17;26.80;83.80
3275;DHT22;1649;53.672;10.064;2023-08-21T15:06:42;26.70;83.90
3275;DHT22;1649;53.672;10.064;2023-08-21T15:09:08;26.70;84.40
3275;DHT22;1649;53.672;10.064;2023-08-21T15:11:34;26.70;85.90
3275;DHT22;1649;53.672;10.064;2023-08-21T15:14:03;26.70;86.90
3275;DHT22;1649;53.672;10.064;2023-08-21T15:16:29;26.60;86.40
3275;DHT22;1649;53.672;10.064;2023-08-21T15:18:55;26.70;85.20
3275;DHT22;1649;53.672;10.064;2023-08-21T15:21:21;26.50;85.80
3275;DHT22;1649;53.672;10.064;2023-08-21T15:23:47;26.40;86.50
3275;DHT22;1649;53.672;10.064;2023-08-21T15:26:12;26.40;84.90
3275;DHT22;1649;53.672;10.064;2023-08-21T15:28:38;26.40;84.80
3275;DHT22;1649;53.672;10.064;2023-08-21T15:31:03;26.20;85.30
3275;DHT22;1649;53.672;10.064;2023-08-21T15:33:30;26.20;85.20
3275;DHT22;1649;53.672;10.064;2023-08-21T15:35:55;26.20;86.10
3275;DHT22;1649;53.672;10.064;2023-08-21T15:38:21;26.10;86.20
3275;DHT22;1649;53.672;10.064;2023-08-21T15:40:46;25.90;85.10
3275;DHT22;1649;53.672;10.064;2023-08-21T15:43:12;25.80;85.30